Time;durP1;ratioP1;P1;durP2;ratioP2;P2;SDS_P1;SDS_P2;PMS_P1;PMS_P2;Temp;Humidity;BMP_temperature;BMP_pressure;BME280_temperature;BME280_humidity;BME280_pressure;Samples;Min_cycle;Max_cycle;Signal;HPM_P1;HPM_P2
2024/01/28 00:01:40;;;;;;;0.43;0.43;;;;;;;6.03;100.00;103464.34;5053016;28;20029;-69
2024/01/28 00:04:07;;;;;;;0.40;0.40;;;;;;;6.08;100.00;103464.81;5053093;28;20423;-69
2024/01/28 00:06:32;;;;;;;0.40;0.40;;;;;;;5.89;100.00;103466.50;5053364;28;20528;-71
2024/01/28 00:08:57;;;;;;;0.68;0.68;;;;;;;6.16;100.00;103464.16;5053016;28;20128;-69
2024/01/28 00:11:23;;;;;;;0.30;0.30;;;;;;;6.19;100.00;103461.22;5053165;28;20786;-68
2024/01/28 00:13:48;;;;;;;0.32;0.32;;;;;;;6.15;100.00;103459.81;5053000;28;20572;-68
2024/01/28 00:16:17;;;;;;;0.43;0.43;;;;;;;5.95;100.00;103461.50;5052762;28;20128;-68
2024/01/28 00:18:43;;;;;;;0.50;0.50;;;;;;;5.83;100.00;103465.22;5052741;28;20120;-69
2024/01/28 00:21:08;;;;;;;0.50;0.50;;;;;;;5.87;100.00;103463.13;5052694;28;20112;-69
2024/01/28 00:23:34;;;;;;;0.68;0.68;;;;;;;5.89;100.00;103456.69;5052516;28;20051;-69
2024/01/28 00:26:01;;;;;;;0.60;0.60;;;;;;;5.90;100.00;103447.69;5052729;28;20031;-71
2024/01/28 00:28:27;;;;;;;0.57;0.57;;;;;;;5.89;100.00;103454.03;5052590;28;20453;-70
2024/01/28 00:30:53;;;;;;;0.60;0.60;;;;;;;5.99;100.00;103457.59;5052580;28;20033;-72
2024/01/28 00:33:18;;;;;;;0.60;0.60;;;;;;;5.98;100.00;103452.38;5052675;28;20033;-70
2024/01/28 00:35:44;;;;;;;0.40;0.40;;;;;;;6.02;100.00;103453.81;5052303;28;20029;-69
2024/01/28 00:38:10;;;;;;;0.57;0.57;;;;;;;6.10;100.00;103454.84;5052519;28;20024;-71
2024/01/28 00:40:35;;;;;;;0.40;0.40;;;;;;;6.00;100.00;103453.09;5052605;28;20029;-69
2024/01/28 00:43:02;;;;;;;0.52;0.52;;;;;;;6.07;100.00;103448.94;5052534;28;20036;-70
2024/01/28 00:45:27;;;;;;;0.50;0.50;;;;;;;6.18;100.00;103438.16;5052279;28;20033;-70
2024/01/28 00:47:53;;;;;;;0.60;0.60;;;;;;;6.11;100.00;103445.84;5051899;28;20048;-69
2024/01/28 00:50:20;;;;;;;0.47;0.47;;;;;;;6.22;100.00;103455.59;5052127;28;20577;-72
2024/01/28 00:52:46;;;;;;;0.32;0.32;;;;;;;6.03;100.00;103451.00;5050625;28;20373;-69
2024/01/28 00:55:11;;;;;;;0.40;0.40;;;;;;;6.19;100.00;103447.88;5051948;28;20102;-69
2024/01/28 00:57:37;;;;;;;0.60;0.60;;;;;;;6.14;100.00;103461.63;5052104;28;20025;-69
2024/01/28 01:00:04;;;;;;;0.52;0.52;;;;;;;6.15;100.00;103455.28;5052105;28;20060;-69
2024/01/28 01:02:29;;;;;;;0.50;0.50;;;;;;;6.12;100.00;103460.03;5051888;28;20094;-68
2024/01/28 01:04:54;;;;;;;0.50;0.50;;;;;;;6.18;100.00;103467.53;5051250;28;20472;-68
2024/01/28 01:07:20;;;;;;;0.35;0.35;;;;;;;6.25;100.00;103466.00;5050741;28;20017;-69
2024/01/28 01:09:45;;;;;;;0.50;0.50;;;;;;;6.20;100.00;103461.09;5051233;28;20037;-70
2024/01/28 01:12:11;;;;;;;0.52;0.52;;;;;;;6.20;100.00;103450.41;5051016;28;20470;-68
2024/01/28 01:14:37;;;;;;;0.50;0.50;;;;;;;6.10;100.00;103449.50;5050818;28;20060;-69
2024/01/28 01:17:04;;;;;;;0.47;0.47;;;;;;;6.11;100.00;103440.50;5050695;28;20052;-69
2024/01/28 01:19:29;;;;;;;0.40;0.40;;;;;;;6.19;100.00;103438.03;5050328;28;20468;-68
2024/01/28 01:21:56;;;;;;;0.47;0.47;;;;;;;6.09;100.00;103442.47;5051022;28;20068;-68
2024/01/28 01:24:22;;;;;;;0.30;0.30;;;;;;;6.12;100.00;103428.00;5050860;28;20025;-70
2024/01/28 01:26:47;;;;;;;0.40;0.40;;;;;;;6.02;100.00;103435.97;5050397;28;20139;-68
2024/01/28 01:29:12;;;;;;;0.47;0.47;;;;;;;6.06;100.00;103439.22;5050422;28;20167;-69
2024/01/28 01:31:38;;;;;;;0.43;0.43;;;;;;;5.98;100.00;103436.34;5050362;28;20056;-69
2024/01/28 01:34:04;;;;;;;0.40;0.40;;;;;;;5.99;100.00;103433.59;5050583;28;20033;-69
2024/01/28 01:36:29;;;;;;;0.50;0.50;;;;;;;5.97;100.00;103429.34;5050270;28;20358;-70
2024/01/28 01:38:56;;;;;;;0.32;0.32;;;;;;;5.93;100.00;103418.09;5049072;28;20484;-67
2024/01/28 01:41:23;;;;;;;0.40;0.40;;;;;;;6.10;100.00;103422.81;5050485;28;20040;-69
2024/01/28 01:43:48;;;;;;;0.43;0.43;;;;;;;6.22;100.00;103412.91;5050313;28;20025;-69
2024/01/28 01:46:14;;;;;;;0.50;0.50;;;;;;;6.06;100.00;103405.38;5050184;28;20036;-69
2024/01/28 01:48:40;;;;;;;0.60;0.60;;;;;;;6.11;100.00;103408.47;5050017;28;20041;-71
2024/01/28 01:51:07;;;;;;;0.40;0.40;;;;;;;6.11;100.00;103400.47;5049734;28;20123;-71
2024/01/28 01:53:34;;;;;;;0.50;0.50;;;;;;;6.26;100.00;103395.63;5050497;28;20056;-69
2024/01/28 01:56:00;;;;;;;0.45;0.45;;;;;;;5.93;100.00;103388.75;5050790;28;20481;-69
2024/01/28 01:58:25;;;;;;;0.30;0.30;;;;;;;5.89;100.00;103395.31;5050679;28;20112;-70
2024/01/28 02:00:51;;;;;;;0.25;0.25;;;;;;;5.83;100.00;103395.84;5050889;28;20055;-70
2024/01/28 02:03:16;;;;;;;0.30;0.30;;;;;;;6.03;100.00;103397.63;5050795;28;20025;-68
2024/01/28 02:05:42;;;;;;;0.47;0.47;;;;;;;5.71;100.00;103402.19;5050566;28;20056;-68
2024/01/28 02:08:07;;;;;;;0.60;0.60;;;;;;;5.93;100.00;103396.75;5048826;28;20020;-69
2024/01/28 02:10:33;;;;;;;0.38;0.38;;;;;;;6.00;100.00;103391.72;5050478;28;20431;-69
2024/01/28 02:12:58;;;;;;;0.68;0.68;;;;;;;6.18;100.00;103390.97;5050732;28;20036;-69
2024/01/28 02:15:23;;;;;;;0.43;0.43;;;;;;;6.06;100.00;103392.03;5050706;28;20036;-68
2024/01/28 02:17:49;;;;;;;0.45;0.45;;;;;;;5.92;100.00;103388.84;5050231;28;20094;-68
2024/01/28 02:20:15;;;;;;;0.40;0.40;;;;;;;6.25;100.00;103390.44;5050183;28;20086;-69
2024/01/28 02:22:43;;;;;;;0.50;0.50;;;;;;;6.37;100.00;103392.03;5050303;28;20445;-68
2024/01/28 02:25:08;;;;;;;0.30;0.30;;;;;;;6.56;100.00;103384.06;5050437;28;20021;-70
2024/01/28 02:27:39;;;;;;;0.40;0.40;;;;;;;6.61;100.00;103381.81;5050437;28;20048;-68
2024/01/28 02:30:05;;;;;;;0.68;0.68;;;;;;;6.20;100.00;103381.00;5050226;28;20664;-68
2024/01/28 02:32:30;;;;;;;0.40;0.40;;;;;;;5.95;100.00;103381.44;5050338;28;20090;-68
2024/01/28 02:34:57;;;;;;;0.30;0.30;;;;;;;6.51;100.00;103380.94;5050389;28;20505;-69
2024/01/28 02:37:22;;;;;;;0.32;0.32;;;;;;;6.60;100.00;103383.66;5050124;28;20023;-68
2024/01/28 02:39:48;;;;;;;0.60;0.60;;;;;;;6.67;100.00;103381.25;5050514;28;20099;-70
2024/01/28 02:42:13;;;;;;;0.57;0.57;;;;;;;6.22;100.00;103380.84;5050450;28;20754;-68
2024/01/28 02:44:39;;;;;;;0.30;0.30;;;;;;;6.57;100.00;103383.91;5041206;28;20057;-69
2024/01/28 02:47:04;;;;;;;0.40;0.40;;;;;;;6.71;100.00;103385.34;5033715;28;20037;-70
2024/01/28 02:49:29;;;;;;;0.52;0.52;;;;;;;6.42;100.00;103373.75;5049846;28;20048;-69
2024/01/28 02:51:55;;;;;;;0.52;0.52;;;;;;;6.32;100.00;103375.53;5050264;28;20080;-68
2024/01/28 02:54:22;;;;;;;0.50;0.50;;;;;;;6.32;100.00;103371.06;5050146;28;20064;-68
2024/01/28 02:56:48;;;;;;;0.50;0.50;;;;;;;6.17;100.00;103359.88;5050069;28;20509;-68
2024/01/28 02:59:13;;;;;;;0.30;0.30;;;;;;;6.43;100.00;103354.91;5050080;28;20028;-68
2024/01/28 03:01:48;;;;;;;0.30;0.30;;;;;;;6.47;100.00;103358.16;5049910;28;20455;-69
2024/01/28 03:04:14;;;;;;;0.40;0.40;;;;;;;6.04;100.00;103345.09;5048459;28;20060;-69
2024/01/28 03:06:40;;;;;;;0.30;0.30;;;;;;;6.47;100.00;103342.13;5050203;28;20377;-69
2024/01/28 03:09:05;;;;;;;0.30;0.30;;;;;;;6.38;100.00;103337.63;5048638;28;20037;-68
2024/01/28 03:11:31;;;;;;;0.73;0.73;;;;;;;6.42;100.00;103337.22;5050033;28;20044;-69
2024/01/28 03:13:56;;;;;;;0.52;0.52;;;;;;;6.58;100.00;103337.53;5050040;28;20427;-69
2024/01/28 03:16:22;;;;;;;0.50;0.50;;;;;;;6.55;100.00;103328.94;5049827;28;20131;-68
2024/01/28 03:18:47;;;;;;;0.60;0.60;;;;;;;6.37;100.00;103336.75;5049634;28;20067;-69
2024/01/28 03:21:13;;;;;;;0.32;0.32;;;;;;;6.38;100.00;103334.94;5086603;28;20414;-68
2024/01/28 03:23:38;;;;;;;0.50;0.50;;;;;;;6.48;100.00;103320.66;5089896;28;20028;-69
2024/01/28 03:26:03;;;;;;;0.40;0.40;;;;;;;6.15;100.00;103327.16;5089927;28;20024;-69
2024/01/28 03:28:29;;;;;;;0.30;0.30;;;;;;;6.48;100.00;103317.97;5089819;28;20074;-67
2024/01/28 03:30:54;;;;;;;0.63;0.63;;;;;;;6.53;100.00;103314.88;5091263;28;20111;-68
2024/01/28 03:33:20;;;;;;;0.68;0.68;;;;;;;6.48;100.00;103314.44;5093895;28;20028;-70
2024/01/28 03:35:45;;;;;;;0.43;0.43;;;;;;;6.43;100.00;103322.03;5090125;28;20124;-71
2024/01/28 03:38:11;;;;;;;0.50;0.50;;;;;;;6.54;100.00;103316.56;5073435;28;20111;-68
2024/01/28 03:40:36;;;;;;;0.50;0.50;;;;;;;6.39;100.00;103315.28;5073383;28;20437;-69
2024/01/28 03:43:01;;;;;;;0.57;0.57;;;;;;;6.08;100.00;103319.81;5073331;28;20051;-68
2024/01/28 03:45:27;;;;;;;0.30;0.30;;;;;;;6.42;100.00;103323.00;5073292;28;20127;-68
2024/01/28 03:47:52;;;;;;;0.40;0.40;;;;;;;6.70;100.00;103316.88;5072848;28;20120;-70
2024/01/28 03:50:19;;;;;;;0.40;0.40;;;;;;;6.60;100.00;103310.69;5073105;28;20118;-70
2024/01/28 03:52:45;;;;;;;0.43;0.43;;;;;;;6.59;100.00;103317.00;5073033;28;20555;-68
2024/01/28 03:55:11;;;;;;;0.40;0.40;;;;;;;6.85;100.00;103316.31;5073127;28;20044;-69
2024/01/28 03:57:40;;;;;;;0.60;0.60;;;;;;;6.88;100.00;103308.00;5073155;28;20360;-69
2024/01/28 04:00:06;;;;;;;0.30;0.30;;;;;;;6.86;100.00;103304.63;5073204;28;20044;-69
2024/01/28 04:02:32;;;;;;;0.50;0.50;;;;;;;6.70;100.00;103303.53;5072878;28;20042;-68
2024/01/28 04:04:57;;;;;;;0.60;0.60;;;;;;;6.32;100.00;103290.09;5072958;28;20028;-70
2024/01/28 04:07:23;;;;;;;0.52;0.52;;;;;;;6.34;100.00;103285.47;5072797;28;20035;-70
2024/01/28 04:09:48;;;;;;;0.40;0.40;;;;;;;6.56;100.00;103290.56;5072929;28;20503;-70
2024/01/28 04:12:13;;;;;;;0.40;0.40;;;;;;;6.74;100.00;103286.22;5072883;28;20472;-68
2024/01/28 04:14:39;;;;;;;0.47;0.47;;;;;;;6.58;100.00;103296.63;5072559;28;20024;-70
2024/01/28 04:17:04;;;;;;;0.35;0.35;;;;;;;6.59;100.00;103287.59;5072575;28;20636;-68
2024/01/28 04:19:30;;;;;;;0.30;0.30;;;;;;;6.54;100.00;103281.84;5072350;28;20032;-69
2024/01/28 04:21:55;;;;;;;0.45;0.45;;;;;;;6.13;100.00;103282.91;5072854;28;20033;-69
2024/01/28 04:24:20;;;;;;;0.30;0.30;;;;;;;6.29;100.00;103277.03;5072664;28;20025;-68
2024/01/28 04:26:46;;;;;;;0.57;0.57;;;;;;;6.34;100.00;103280.97;5072523;28;20025;-70
2024/01/28 04:29:11;;;;;;;0.43;0.43;;;;;;;6.48;100.00;103280.59;5072494;28;20114;-69
2024/01/28 04:31:41;;;;;;;0.40;0.40;;;;;;;6.53;100.00;103272.97;5072389;28;20123;-69
2024/01/28 04:34:07;;;;;;;0.40;0.40;;;;;;;6.38;100.00;103270.84;5072616;28;20357;-69
2024/01/28 04:36:32;;;;;;;0.50;0.50;;;;;;;6.35;100.00;103266.63;5072212;28;20082;-69
2024/01/28 04:38:59;;;;;;;0.40;0.40;;;;;;;6.52;100.00;103263.31;5072129;28;20554;-68
2024/01/28 04:41:24;;;;;;;0.40;0.40;;;;;;;6.34;100.00;103267.63;5071251;28;20093;-69
2024/01/28 04:43:49;;;;;;;0.60;0.60;;;;;;;6.31;100.00;103259.88;5072098;28;20032;-69
2024/01/28 04:46:18;;;;;;;0.40;0.40;;;;;;;6.32;100.00;103258.06;5072261;28;20741;-68
2024/01/28 04:48:44;;;;;;;0.30;0.30;;;;;;;5.99;100.00;103260.13;5071979;28;20108;-69
2024/01/28 04:51:10;;;;;;;0.30;0.30;;;;;;;6.15;100.00;103262.25;5072036;28;20056;-70
2024/01/28 04:53:36;;;;;;;0.40;0.40;;;;;;;6.10;100.00;103256.47;5071971;28;20036;-69
2024/01/28 04:56:01;;;;;;;0.40;0.40;;;;;;;6.09;100.00;103265.47;5071987;28;20020;-68
2024/01/28 04:58:27;;;;;;;0.40;0.40;;;;;;;6.03;100.00;103263.34;5071947;28;20104;-67
2024/01/28 05:00:52;;;;;;;0.40;0.40;;;;;;;6.07;100.00;103252.25;5062397;28;20029;-68
2024/01/28 05:03:17;;;;;;;0.40;0.40;;;;;;;6.02;100.00;103250.97;5070914;28;20012;-68
2024/01/28 05:05:43;;;;;;;0.50;0.50;;;;;;;6.01;100.00;103251.97;5071552;28;20017;-68
2024/01/28 05:08:09;;;;;;;0.47;0.47;;;;;;;5.88;100.00;103244.19;5059689;28;20470;-68
2024/01/28 05:10:34;;;;;;;0.40;0.40;;;;;;;5.91;100.00;103241.28;5058421;28;20509;-69
2024/01/28 05:13:00;;;;;;;0.40;0.40;;;;;;;5.95;100.00;103234.69;5068441;28;20024;-68
2024/01/28 05:15:26;;;;;;;0.45;0.45;;;;;;;6.04;100.00;103233.00;5071541;28;20030;-69
2024/01/28 05:17:51;;;;;;;0.50;0.50;;;;;;;6.05;100.00;103226.69;5071264;28;20040;-68
2024/01/28 05:20:17;;;;;;;0.50;0.50;;;;;;;6.06;100.00;103226.56;5071617;28;20066;-69
2024/01/28 05:22:42;;;;;;;0.45;0.45;;;;;;;5.98;100.00;103222.88;5071431;28;20118;-68
2024/01/28 05:25:09;;;;;;;0.50;0.50;;;;;;;5.95;100.00;103220.50;5052786;28;20037;-69
2024/01/28 05:27:35;;;;;;;0.50;0.50;;;;;;;6.01;100.00;103214.59;5071422;28;20099;-71
2024/01/28 05:30:00;;;;;;;0.55;0.55;;;;;;;5.95;100.00;103205.31;5071247;28;20090;-68
2024/01/28 05:32:26;;;;;;;0.35;0.35;;;;;;;5.81;100.00;103192.34;5070046;28;20471;-68
2024/01/28 05:34:51;;;;;;;0.30;0.30;;;;;;;5.81;100.00;103195.00;5071276;28;20040;-68
2024/01/28 05:37:17;;;;;;;0.60;0.60;;;;;;;6.00;100.00;103187.06;5070335;28;20541;-68
2024/01/28 05:39:42;;;;;;;0.40;0.40;;;;;;;5.73;100.00;103194.00;5071312;28;20059;-70
2024/01/28 05:42:07;;;;;;;0.43;0.43;;;;;;;5.79;100.00;103185.44;5071422;28;20021;-69
2024/01/28 05:44:33;;;;;;;0.50;0.50;;;;;;;5.79;100.00;103188.13;5071191;28;20021;-69
2024/01/28 05:46:58;;;;;;;0.50;0.50;;;;;;;5.82;100.00;103180.66;5070982;28;20469;-69
2024/01/28 05:49:24;;;;;;;0.40;0.40;;;;;;;5.85;100.00;103180.44;5070912;28;20114;-70
2024/01/28 05:51:49;;;;;;;0.38;0.38;;;;;;;6.13;100.00;103178.81;5058357;28;20053;-69
2024/01/28 05:54:15;;;;;;;0.50;0.50;;;;;;;5.90;100.00;103175.53;5050197;28;20033;-68
2024/01/28 05:56:41;;;;;;;0.40;0.40;;;;;;;6.00;100.00;103188.88;5050746;28;20393;-68
2024/01/28 05:59:06;;;;;;;0.68;0.68;;;;;;;6.20;100.00;103182.59;5050727;28;20108;-68
2024/01/28 06:01:31;;;;;;;0.40;0.40;;;;;;;5.66;100.00;103193.69;5050541;28;20036;-68
2024/01/28 06:03:57;;;;;;;0.50;0.50;;;;;;;5.81;100.00;103184.34;5050753;28;20028;-68
2024/01/28 06:06:22;;;;;;;0.50;0.50;;;;;;;5.72;100.00;103186.97;5050744;28;20112;-69
2024/01/28 06:08:47;;;;;;;0.50;0.50;;;;;;;6.06;100.00;103178.50;5050463;28;20103;-68
2024/01/28 06:11:12;;;;;;;0.40;0.40;;;;;;;6.37;100.00;103173.88;5050662;28;20080;-69
2024/01/28 06:13:38;;;;;;;0.50;0.50;;;;;;;6.06;100.00;103178.50;5050505;28;20031;-69
2024/01/28 06:16:06;;;;;;;0.35;0.35;;;;;;;6.36;100.00;103174.88;5050523;28;20119;-68
2024/01/28 06:18:31;;;;;;;0.60;0.60;;;;;;;6.32;100.00;103180.63;5050335;28;20104;-68
2024/01/28 06:20:56;;;;;;;0.32;0.32;;;;;;;6.42;100.00;103176.13;5050592;28;20464;-69
2024/01/28 06:23:22;;;;;;;0.60;0.60;;;;;;;6.43;100.00;103169.81;5050441;28;20039;-68
2024/01/28 06:25:47;;;;;;;0.47;0.47;;;;;;;6.06;100.00;103166.97;5050216;28;20104;-69
2024/01/28 06:28:13;;;;;;;0.60;0.60;;;;;;;6.32;100.00;103169.94;5050038;28;20025;-68
2024/01/28 06:30:38;;;;;;;0.60;0.60;;;;;;;6.46;100.00;103169.53;5050426;28;20109;-69
2024/01/28 06:33:04;;;;;;;0.50;0.50;;;;;;;6.20;100.00;103164.75;5049998;28;20082;-69
2024/01/28 06:35:30;;;;;;;0.30;0.30;;;;;;;5.68;100.00;103159.72;5049926;28;20055;-68
2024/01/28 06:37:55;;;;;;;0.40;0.40;;;;;;;6.00;100.00;103155.03;5050255;28;20043;-68
2024/01/28 06:40:21;;;;;;;0.50;0.50;;;;;;;6.04;100.00;103156.44;5050316;28;20029;-68
2024/01/28 06:42:46;;;;;;;0.40;0.40;;;;;;;6.04;100.00;103164.47;5050395;28;20103;-70
2024/01/28 06:45:12;;;;;;;0.50;0.50;;;;;;;6.06;100.00;103157.16;5050280;28;20040;-69
2024/01/28 06:47:37;;;;;;;0.50;0.50;;;;;;;5.98;100.00;103164.16;5049989;28;20071;-69
2024/01/28 06:50:03;;;;;;;0.43;0.43;;;;;;;6.11;100.00;103176.25;5049982;28;20040;-68
2024/01/28 06:52:29;;;;;;;0.50;0.50;;;;;;;6.14;100.00;103172.47;5067817;28;20052;-70
2024/01/28 06:54:55;;;;;;;0.55;0.55;;;;;;;6.13;100.00;103168.94;5070172;28;20439;-69
2024/01/28 06:57:20;;;;;;;0.60;0.60;;;;;;;5.86;100.00;103160.78;5070058;28;20032;-69
2024/01/28 06:59:46;;;;;;;0.32;0.32;;;;;;;5.90;100.00;103158.66;5069978;28;20181;-70
2024/01/28 07:02:12;;;;;;;0.40;0.40;;;;;;;5.83;100.00;103158.41;5070039;28;20032;-68
2024/01/28 07:04:38;;;;;;;0.47;0.47;;;;;;;5.97;100.00;103159.81;5070641;28;20043;-69
2024/01/28 07:07:04;;;;;;;0.50;0.50;;;;;;;6.02;100.00;103161.09;5074074;28;20035;-70
2024/01/28 07:09:30;;;;;;;0.60;0.60;;;;;;;6.18;100.00;103172.06;5073623;28;20123;-70
2024/01/28 07:11:55;;;;;;;0.30;0.30;;;;;;;6.22;100.00;103178.81;5073872;28;20479;-69
2024/01/28 07:14:22;;;;;;;0.50;0.50;;;;;;;6.27;100.00;103178.38;5073774;28;20032;-69
2024/01/28 07:16:47;;;;;;;0.52;0.52;;;;;;;6.36;100.00;103174.88;5073696;28;20436;-70
2024/01/28 07:19:13;;;;;;;0.60;0.60;;;;;;;6.20;100.00;103167.44;5073564;28;20036;-68
2024/01/28 07:21:38;;;;;;;0.47;0.47;;;;;;;6.12;100.00;103169.94;5073724;28;20507;-69
2024/01/28 07:24:04;;;;;;;0.70;0.70;;;;;;;6.21;100.00;103170.94;5073699;28;20497;-67
2024/01/28 07:26:29;;;;;;;0.57;0.57;;;;;;;6.31;100.00;103171.78;5073656;28;20511;-70
2024/01/28 07:28:55;;;;;;;0.30;0.30;;;;;;;6.36;100.00;103171.34;5073236;28;20093;-68
2024/01/28 07:31:20;;;;;;;0.52;0.52;;;;;;;6.28;100.00;103166.72;5073703;28;20028;-69
2024/01/28 07:33:46;;;;;;;0.40;0.40;;;;;;;6.05;100.00;103174.13;5073535;28;20358;-69
2024/01/28 07:36:12;;;;;;;0.50;0.50;;;;;;;5.88;100.00;103171.31;5073361;28;20333;-70
2024/01/28 07:38:37;;;;;;;0.60;0.60;;;;;;;5.91;100.00;103171.91;5073322;28;20098;-69
2024/01/28 07:41:03;;;;;;;0.35;0.35;;;;;;;5.94;100.00;103171.59;5070788;28;20036;-68
2024/01/28 07:43:28;;;;;;;0.40;0.40;;;;;;;5.79;100.00;103172.09;5053273;28;20072;-68
2024/01/28 07:45:53;;;;;;;0.40;0.40;;;;;;;5.95;100.00;103180.47;5053336;28;20048;-70
2024/01/28 07:48:19;;;;;;;0.30;0.30;;;;;;;5.75;100.00;103176.03;5052959;28;20110;-70
2024/01/28 07:50:45;;;;;;;0.50;0.50;;;;;;;6.00;100.00;103173.72;5052732;28;20053;-70
2024/01/28 07:53:12;;;;;;;0.32;0.32;;;;;;;6.01;100.00;103164.72;5053142;28;20079;-69
2024/01/28 07:55:37;;;;;;;0.32;0.32;;;;;;;6.14;100.00;103164.47;5053073;28;20025;-69
2024/01/28 07:58:03;;;;;;;0.43;0.43;;;;;;;6.17;100.00;103158.88;5053038;28;20681;-69
2024/01/28 08:00:28;;;;;;;0.40;0.40;;;;;;;6.23;100.00;103155.59;5053230;28;20053;-68
2024/01/28 08:02:54;;;;;;;0.38;0.38;;;;;;;6.24;100.00;103143.97;5052750;28;20087;-70
2024/01/28 08:05:19;;;;;;;0.47;0.47;;;;;;;6.07;100.00;103156.16;5052959;28;20055;-68
2024/01/28 08:07:45;;;;;;;0.40;0.40;;;;;;;6.35;100.00;103151.00;5052638;28;20194;-70
2024/01/28 08:10:10;;;;;;;0.45;0.45;;;;;;;6.35;100.00;103145.66;5052760;28;20503;-69
2024/01/28 08:12:36;;;;;;;0.43;0.43;;;;;;;6.05;100.00;103150.13;5068882;28;20487;-69
2024/01/28 08:15:02;;;;;;;0.65;0.65;;;;;;;6.32;100.00;103141.44;5072742;28;20092;-70
2024/01/28 08:17:28;;;;;;;0.50;0.50;;;;;;;6.30;100.00;103150.56;5071663;28;20028;-69
2024/01/28 08:19:54;;;;;;;0.47;0.47;;;;;;;6.06;100.00;103145.63;5072491;28;20034;-71
2024/01/28 08:22:19;;;;;;;0.47;0.47;;;;;;;6.59;100.00;103141.53;5072644;28;20020;-71
2024/01/28 08:24:45;;;;;;;0.40;0.40;;;;;;;6.94;100.00;103151.56;5080711;28;20036;-71
2024/01/28 08:27:10;;;;;;;0.30;0.30;;;;;;;6.69;100.00;103138.84;5082245;28;20023;-69
2024/01/28 08:29:37;;;;;;;0.30;0.30;;;;;;;6.66;100.00;103139.97;5082680;28;20135;-73
2024/01/28 08:32:03;;;;;;;0.40;0.40;;;;;;;6.70;100.00;103145.88;5074222;28;20111;-72
2024/01/28 08:34:28;;;;;;;0.32;0.32;;;;;;;6.54;100.00;103142.97;5072350;28;20422;-71
2024/01/28 08:36:54;;;;;;;0.50;0.50;;;;;;;6.67;100.00;103130.97;5071806;28;20043;-69
2024/01/28 08:39:19;;;;;;;0.32;0.32;;;;;;;6.74;100.00;103144.63;5080103;28;20120;-70
2024/01/28 08:41:45;;;;;;;0.60;0.60;;;;;;;6.93;100.00;103131.19;5056824;28;20502;-69
2024/01/28 08:44:10;;;;;;;0.47;0.47;;;;;;;6.62;100.00;103121.72;5085164;28;20028;-71
2024/01/28 08:46:41;;;;;;;0.30;0.30;;;;;;;6.83;100.00;103127.72;5072156;28;20037;-69
2024/01/28 08:49:07;;;;;;;;;;;;;;;7.47;100.00;103125.06;5077350;28;20119;-69
2024/01/28 08:51:32;;;;;;;0.50;0.50;;;;;;;7.03;100.00;103132.00;5071923;28;20333;-68
2024/01/28 08:53:58;;;;;;;0.50;0.50;;;;;;;7.15;100.00;103121.97;5071805;28;20689;-68
2024/01/28 08:56:23;;;;;;;0.25;0.25;;;;;;;6.16;100.00;103117.13;5071970;28;20404;-69
2024/01/28 08:58:48;;;;;;;0.40;0.40;;;;;;;6.54;100.00;103114.44;5071913;28;20614;-70
2024/01/28 09:01:14;;;;;;;0.50;0.50;;;;;;;6.49;100.00;103111.31;5071770;28;20036;-68
2024/01/28 09:03:39;;;;;;;0.50;0.50;;;;;;;7.50;100.00;103119.41;5071727;28;20036;-69
2024/01/28 09:06:06;;;;;;;0.40;0.40;;;;;;;7.18;100.00;103113.66;5053499;28;20048;-70
2024/01/28 09:08:32;;;;;;;0.40;0.40;;;;;;;7.56;100.00;103108.97;5052948;28;20037;-68
2024/01/28 09:10:57;;;;;;;0.40;0.40;;;;;;;7.71;100.00;103106.59;5071814;28;20548;-72
2024/01/28 09:13:26;;;;;;;0.35;0.35;;;;;;;7.36;100.00;103106.53;5071924;28;20457;-68
2024/01/28 09:15:53;;;;;;;0.40;0.40;;;;;;;7.47;100.00;103101.00;5054431;28;20383;-68
2024/01/28 09:18:19;;;;;;;0.40;0.40;;;;;;;7.60;100.00;103102.31;5071250;28;20148;-67
2024/01/28 09:20:44;;;;;;;0.60;0.60;;;;;;;7.55;100.00;103109.09;5071143;28;20119;-68
2024/01/28 09:23:10;;;;;;;0.40;0.40;;;;;;;7.84;100.00;103094.53;5071399;28;20038;-68
2024/01/28 09:25:35;;;;;;;0.30;0.30;;;;;;;7.73;100.00;103088.56;5071252;28;20036;-68
2024/01/28 09:28:01;;;;;;;0.40;0.40;;;;;;;7.63;100.00;103093.97;5070367;28;20036;-68
2024/01/28 09:30:26;;;;;;;0.30;0.30;;;;;;;7.66;100.00;103096.38;5071064;28;20029;-68
2024/01/28 09:32:52;;;;;;;0.43;0.43;;;;;;;7.47;100.00;103092.97;5071171;28;20029;-68
2024/01/28 09:35:17;;;;;;;0.45;0.45;;;;;;;7.67;100.00;103094.50;5052870;28;20081;-69
2024/01/28 09:37:42;;;;;;;0.47;0.47;;;;;;;7.31;100.00;103080.22;5070921;28;20350;-67
2024/01/28 09:40:11;;;;;;;0.47;0.47;;;;;;;6.94;100.00;103084.75;5053149;28;20394;-67
2024/01/28 09:43:04;;;;;;;0.73;0.73;;;;;;;7.63;100.00;103090.44;5071157;28;20035;-68
2024/01/28 09:45:30;;;;;;;0.30;0.30;;;;;;;8.08;100.00;103085.88;5071187;28;20039;-68
2024/01/28 09:47:56;;;;;;;0.40;0.40;;;;;;;7.96;100.00;103079.06;5070613;28;20033;-68
2024/01/28 09:50:21;;;;;;;0.30;0.30;;;;;;;7.98;100.00;103074.41;5070637;28;20036;-68
2024/01/28 09:52:47;;;;;;;0.40;0.40;;;;;;;7.45;100.00;103066.34;5070655;28;20173;-69
2024/01/28 09:55:12;;;;;;;0.60;0.60;;;;;;;8.04;100.00;103059.59;5070849;28;20020;-68
2024/01/28 09:57:39;;;;;;;0.35;0.35;;;;;;;7.78;100.00;103063.00;5052722;28;20568;-67
2024/01/28 10:00:07;;;;;;;0.40;0.40;;;;;;;7.90;100.00;103063.66;5070757;28;20040;-67
2024/01/28 10:02:35;;;;;;;0.52;0.52;;;;;;;8.19;100.00;103060.72;5070293;28;20044;-68
2024/01/28 10:05:01;;;;;;;0.30;0.30;;;;;;;8.46;100.00;103065.97;5070522;28;20035;-68
2024/01/28 10:07:27;;;;;;;0.47;0.47;;;;;;;8.46;100.00;103058.78;5070569;28;20040;-69
2024/01/28 10:09:52;;;;;;;0.50;0.50;;;;;;;8.96;100.00;103066.94;5070761;28;20392;-67
2024/01/28 10:12:18;;;;;;;0.30;0.30;;;;;;;9.27;98.33;103059.19;5070670;28;20036;-68
2024/01/28 10:14:50;;;;;;;0.50;0.50;;;;;;;9.61;97.73;103049.22;5070321;28;20036;-68
2024/01/28 10:17:15;;;;;;;0.40;0.40;;;;;;;9.13;96.24;103043.72;5051970;28;20032;-69
2024/01/28 10:19:41;;;;;;;0.40;0.40;;;;;;;8.99;98.02;103049.69;5070130;28;20119;-68
2024/01/28 10:22:07;;;;;;;0.40;0.40;;;;;;;9.31;96.57;103041.75;5070326;28;20450;-68
2024/01/28 10:24:32;;;;;;;0.63;0.63;;;;;;;9.54;94.98;103032.94;5067129;28;20032;-67
2024/01/28 10:26:58;;;;;;;0.35;0.35;;;;;;;9.84;92.73;103033.31;5090522;28;20028;-68
2024/01/28 10:29:25;;;;;;;0.40;0.40;;;;;;;9.55;93.37;103039.16;5088708;28;20027;-68
2024/01/28 10:31:51;;;;;;;0.60;0.60;;;;;;;9.94;91.81;103034.00;5078869;28;20049;-68
2024/01/28 10:34:17;;;;;;;0.30;0.30;;;;;;;9.60;92.39;103029.59;5063918;28;20043;-68
2024/01/28 10:36:47;;;;;;;0.55;0.55;;;;;;;10.31;91.67;103031.66;5078824;28;20051;-69
2024/01/28 10:39:14;;;;;;;0.30;0.30;;;;;;;9.79;92.65;103033.81;5072102;28;20085;-67
2024/01/28 10:41:49;;;;;;;0.40;0.40;;;;;;;10.11;91.93;103030.31;5069971;28;20399;-68
2024/01/28 10:44:15;;;;;;;0.40;0.40;;;;;;;10.49;90.31;103026.94;5070281;28;20520;-68
2024/01/28 10:46:44;;;;;;;0.30;0.30;;;;;;;10.16;92.01;103022.59;5070141;28;20119;-71
2024/01/28 10:49:10;;;;;;;0.40;0.40;;;;;;;9.77;92.20;103017.88;5069712;28;20040;-69
2024/01/28 10:51:39;;;;;;;0.40;0.40;;;;;;;10.21;90.84;103006.81;5069852;28;20460;-70
2024/01/28 10:54:10;;;;;;;0.40;0.40;;;;;;;10.02;90.85;103002.59;5069888;28;20036;-69
2024/01/28 10:56:39;;;;;;;0.30;0.30;;;;;;;10.01;91.01;102997.38;5070038;28;20040;-69
2024/01/28 10:59:05;;;;;;;0.40;0.40;;;;;;;10.00;90.88;102995.72;5069935;28;20384;-68
2024/01/28 11:01:33;;;;;;;0.47;0.47;;;;;;;9.65;92.86;102984.28;5075990;28;20027;-70
2024/01/28 11:03:59;;;;;;;0.40;0.40;;;;;;;9.76;93.10;102991.19;5071486;28;20032;-68
2024/01/28 11:06:32;;;;;;;0.40;0.40;;;;;;;10.35;90.92;102995.38;5090245;28;20024;-69
2024/01/28 11:08:58;;;;;;;0.30;0.30;;;;;;;9.93;92.02;102987.47;5073108;28;20029;-70
2024/01/28 11:11:24;;;;;;;0.40;0.40;;;;;;;10.45;90.46;102988.81;5070085;28;20021;-70
2024/01/28 11:13:50;;;;;;;0.30;0.30;;;;;;;10.17;92.11;102983.97;5069545;28;20372;-71
2024/01/28 11:16:18;;;;;;;0.30;0.30;;;;;;;10.14;92.36;102982.44;5066128;28;20043;-70
2024/01/28 11:18:57;;;;;;;0.40;0.40;;;;;;;10.90;89.88;102971.16;5079893;28;20043;-69
2024/01/28 11:21:25;;;;;;;0.30;0.30;;;;;;;10.68;88.88;102963.84;5069833;28;20033;-71